Time,TemperatureF,DewpointF,PressureIn,WindDirection,WindDirectionDegrees,WindSpeedMPH,WindSpeedGustMPH,Humidity,HourlyPrecipIn,Conditions,Clouds,dailyrainin,SoftwareType,DateUTC
2013-07-17 00:09:00,68.7,67.0,30.18,SSE,154,0.0,1.0,95,0.00,,,0.00,weatherlink.com 1.10,2013-07-17 04:09:00,
2013-07-17 00:25:00,68.6,67.0,30.18,SSE,154,0.0,0.0,95,0.00,,,0.00,weatherlink.com 1.10,2013-07-17 04:25:00,
2013-07-17 00:39:00,68.5,67.0,30.17,SSE,154,0.0,0.0,95,0.00,,,0.00,weatherlink.com 1.10,2013-07-17 04:39:00,
2013-07-17 00:55:00,68.2,67.0,30.17,SSE,154,0.0,0.0,95,0.00,,,0.00,weatherlink.com 1.10,2013-07-17 04:55:00,
2013-07-17 01:09:00,67.9,67.0,30.16,SSE,154,0.0,0.0,95,0.00,,,0.00,weatherlink.com 1.10,2013-07-17 05:09:00,
2013-07-17 01:25:00,67.6,66.0,30.16,SSE,154,0.0,0.0,95,0.00,,,0.00,weatherlink.com 1.10,2013-07-17 05:25:00,
2013-07-17 01:39:00,67.3,66.0,30.16,SSE,154,0.0,0.0,95,0.00,,,0.00,weatherlink.com 1.10,2013-07-17 05:39:00,
2013-07-17 01:55:00,67.0,66.0,30.16,SSE,154,0.0,0.0,95,0.00,,,0.00,weatherlink.com 1.10,2013-07-17 05:55:00,
2013-07-17 02:09:00,66.8,65.0,30.16,SSE,154,0.0,1.0,95,0.00,,,0.00,weatherlink.com 1.10,2013-07-17 06:09:00,
2013-07-17 02:25:00,66.6,65.0,30.16,SSE,154,0.0,0.0,95,0.00,,,0.00,weatherlink.com 1.10,2013-07-17 06:25:00,
2013-07-17 02:39:00,66.3,65.0,30.16,SSE,154,0.0,0.0,96,0.00,,,0.00,weatherlink.com 1.10,2013-07-17 06:39:00,
2013-07-17 02:55:00,66.0,65.0,30.16,SSE,154,0.0,0.0,95,0.00,,,0.00,weatherlink.com 1.10,2013-07-17 06:55:00,
2013-07-17 03:11:00,65.7,65.0,30.16,SSE,154,0.0,0.0,96,0.00,,,0.00,weatherlink.com 1.10,2013-07-17 07:11:00,
2013-07-17 03:25:00,65.5,64.0,30.16,SSE,154,0.0,0.0,95,0.00,,,0.00,weatherlink.com 1.10,2013-07-17 07:25:00,
2013-07-17 03:41:00,65.6,65.0,30.16,SSE,154,0.0,0.0,96,0.00,,,0.00,weatherlink.com 1.10,2013-07-17 07:41:00,
2013-07-17 03:55:00,65.4,64.0,30.16,SSE,154,0.0,0.0,96,0.00,,,0.00,weatherlink.com 1.10,2013-07-17 07:55:00,
2013-07-17 04:10:00,65.2,64.0,30.16,SSE,154,0.0,0.0,96,0.00,,,0.00,weatherlink.com 1.10,2013-07-17 08:10:00,
2013-07-17 04:26:00,65.2,64.0,30.16,SSE,154,0.0,0.0,96,0.00,,,0.00,weatherlink.com 1.10,2013-07-17 08:26:00,
2013-07-17 04:41:00,65.1,64.0,30.17,SSE,154,0.0,0.0,96,0.00,,,0.00,weatherlink.com 1.10,2013-07-17 08:41:00,
2013-07-17 04:56:00,64.9,64.0,30.17,SSE,154,0.0,0.0,96,0.00,,,0.00,weatherlink.com 1.10,2013-07-17 08:56:00,
2013-07-17 05:11:00,64.7,64.0,30.17,SSE,154,0.0,0.0,96,0.00,,,0.00,weatherlink.com 1.10,2013-07-17 09:11:00,
2013-07-17 05:25:00,64.6,64.0,30.17,SSE,154,0.0,0.0,96,0.00,,,0.00,weatherlink.com 1.10,2013-07-17 09:25:00,
2013-07-17 05:41:00,64.9,64.0,30.18,SSE,154,0.0,0.0,96,0.00,,,0.00,weatherlink.com 1.10,2013-07-17 09:41:00,
2013-07-17 05:57:00,64.9,64.0,30.18,SSE,154,0.0,0.0,96,0.00,,,0.00,weatherlink.com 1.10,2013-07-17 09:57:00,
2013-07-17 06:11:00,65.2,64.0,30.18,SSE,154,0.0,0.0,97,0.00,,,0.00,weatherlink.com 1.10,2013-07-17 10:11:00,
2013-07-17 06:27:00,66.1,65.0,30.19,SSE,154,0.0,0.0,97,0.00,,,0.00,weatherlink.com 1.10,2013-07-17 10:27:00,
2013-07-17 06:41:00,67.0,66.0,30.19,SSE,154,0.0,0.0,97,0.00,,,0.00,weatherlink.com 1.10,2013-07-17 10:41:00,
2013-07-17 06:57:00,69.0,68.0,30.19,SSE,154,0.0,0.0,97,0.00,,,0.00,weatherlink.com 1.10,2013-07-17 10:57:00,
2013-07-17 07:11:00,71.6,71.0,30.19,SSE,154,0.0,0.0,97,0.00,,,0.00,weatherlink.com 1.10,2013-07-17 11:11:00,
2013-07-17 07:27:00,74.0,73.0,30.19,SSE,154,0.0,1.0,97,0.00,,,0.00,weatherlink.com 1.10,2013-07-17 11:27:00,
2013-07-17 07:43:00,75.8,75.0,30.20,SSE,154,0.0,1.0,96,0.00,,,0.00,weatherlink.com 1.10,2013-07-17 11:43:00,
2013-07-17 07:57:00,77.5,73.0,30.20,SE,146,0.0,2.0,87,0.00,,,0.00,weatherlink.com 1.10,2013-07-17 11:57:00,
2013-07-17 08:12:00,80.0,73.0,30.20,North,11,0.0,2.0,78,0.00,,,0.00,weatherlink.com 1.10,2013-07-17 12:12:00,
2013-07-17 08:27:00,81.8,74.0,30.20,North,6,0.0,2.0,76,0.00,,,0.00,weatherlink.com 1.10,2013-07-17 12:27:00,
2013-07-17 08:42:00,83.3,72.0,30.20,ESE,110,0.0,2.0,69,0.00,,,0.00,weatherlink.com 1.10,2013-07-17 12:42:00,
2013-07-17 08:58:00,84.2,73.0,30.20,SSE,159,0.0,2.0,68,0.00,,,0.00,weatherlink.com 1.10,2013-07-17 12:58:00,
2013-07-17 09:13:00,84.8,73.0,30.20,SSE,159,1.0,2.0,68,0.00,,,0.00,weatherlink.com 1.10,2013-07-17 13:13:00,
2013-07-17 09:27:00,85.0,72.0,30.20,ENE,61,1.0,3.0,65,0.00,,,0.00,weatherlink.com 1.10,2013-07-17 13:27:00,
2013-07-17 09:46:00,85.8,72.0,30.20,ENE,77,0.0,2.0,64,0.00,,,0.00,weatherlink.com 1.10,2013-07-17 13:46:00,
2013-07-17 09:57:00,86.0,72.0,30.20,North,6,1.0,2.0,63,0.00,,,0.00,weatherlink.com 1.10,2013-07-17 13:57:00,
2013-07-17 10:13:00,86.3,72.0,30.20,NNE,14,0.0,2.0,62,0.00,,,0.00,weatherlink.com 1.10,2013-07-17 14:13:00,
2013-07-17 10:29:00,86.9,73.0,30.20,NE,53,0.0,2.0,64,0.00,,,0.00,weatherlink.com 1.10,2013-07-17 14:29:00,
2013-07-17 10:43:00,87.2,75.0,30.20,West,267,1.0,4.0,67,0.00,,,0.00,weatherlink.com 1.10,2013-07-17 14:43:00,
2013-07-17 10:58:00,85.1,73.0,30.19,SE,132,2.0,4.0,68,0.00,,,0.00,weatherlink.com 1.10,2013-07-17 14:58:00,
2013-07-17 11:14:00,83.9,71.0,30.19,SSW,195,2.0,6.0,66,0.00,,,0.00,weatherlink.com 1.10,2013-07-17 15:14:00,
2013-07-17 11:28:00,83.6,72.0,30.19,SE,146,1.0,4.0,67,0.00,,,0.00,weatherlink.com 1.10,2013-07-17 15:28:00,
2013-07-17 11:45:00,84.0,73.0,30.18,South,172,0.0,4.0,70,0.00,,,0.00,weatherlink.com 1.10,2013-07-17 15:45:00,
2013-07-17 11:58:00,84.7,74.0,30.18,SE,136,1.0,4.0,70,0.00,,,0.00,weatherlink.com 1.10,2013-07-17 15:58:00,
2013-07-17 12:14:00,84.9,72.0,30.18,SW,214,1.0,3.0,65,0.00,,,0.00,weatherlink.com 1.10,2013-07-17 16:14:00,
2013-07-17 12:28:00,85.4,72.0,30.18,SW,230,2.0,3.0,64,0.00,,,0.00,weatherlink.com 1.10,2013-07-17 16:28:00,
2013-07-17 12:44:00,85.6,72.0,30.17,SE,145,3.0,6.0,63,0.00,,,0.00,weatherlink.com 1.10,2013-07-17 16:44:00,
2013-07-17 12:59:00,84.9,71.0,30.17,SW,220,2.0,5.0,64,0.00,,,0.00,weatherlink.com 1.10,2013-07-17 16:59:00,
2013-07-17 13:14:00,84.7,70.0,30.17,SW,214,2.0,5.0,61,0.00,,,0.00,weatherlink.com 1.10,2013-07-17 17:14:00,
2013-07-17 13:30:00,84.9,71.0,30.17,ESE,108,0.0,4.0,64,0.00,,,0.00,weatherlink.com 1.10,2013-07-17 17:30:00,
2013-07-17 13:44:00,85.6,74.0,30.17,ESE,114,2.0,5.0,69,0.00,,,0.00,weatherlink.com 1.10,2013-07-17 17:44:00,
2013-07-17 14:01:00,85.2,71.0,30.16,SW,226,2.0,5.0,62,0.00,,,0.00,weatherlink.com 1.10,2013-07-17 18:01:00,
2013-07-17 14:15:00,84.8,70.0,30.17,ESE,123,2.0,4.0,62,0.00,,,0.00,weatherlink.com 1.10,2013-07-17 18:15:00,
2013-07-17 14:29:00,84.6,71.0,30.16,WSW,239,2.0,4.0,64,0.00,,,0.00,weatherlink.com 1.10,2013-07-17 18:29:00,
2013-07-17 14:45:00,84.8,71.0,30.15,South,186,1.0,4.0,64,0.00,,,0.00,weatherlink.com 1.10,2013-07-17 18:45:00,
2013-07-17 15:05:00,84.6,71.0,30.15,SE,129,5.0,5.0,63,0.00,,,0.00,weatherlink.com 1.10,2013-07-17 19:05:00,
2013-07-17 15:15:00,84.0,72.0,30.15,SE,144,1.0,6.0,67,0.00,,,0.00,weatherlink.com 1.10,2013-07-17 19:15:00,
2013-07-17 15:31:00,83.8,73.0,30.15,South,187,4.0,6.0,69,0.00,,,0.00,weatherlink.com 1.10,2013-07-17 19:31:00,
2013-07-17 15:45:00,83.3,72.0,30.14,SE,127,2.0,5.0,69,0.00,,,0.00,weatherlink.com 1.10,2013-07-17 19:45:00,
2013-07-17 16:00:00,82.5,73.0,30.14,SE,133,1.0,4.0,73,0.00,,,0.00,weatherlink.com 1.10,2013-07-17 20:00:00,
2013-07-17 16:15:00,81.8,71.0,30.13,South,177,1.0,5.0,70,0.00,,,0.00,weatherlink.com 1.10,2013-07-17 20:15:00,
2013-07-17 16:30:00,81.4,71.0,30.12,SSW,213,2.0,4.0,71,0.00,,,0.00,weatherlink.com 1.10,2013-07-17 20:30:00,
2013-07-17 16:45:00,82.0,72.0,30.12,WSW,240,2.0,4.0,71,0.00,,,0.00,weatherlink.com 1.10,2013-07-17 20:45:00,
2013-07-17 17:00:00,81.1,70.0,30.11,SW,229,2.0,6.0,68,0.00,,,0.00,weatherlink.com 1.10,2013-07-17 21:00:00,
2013-07-17 17:15:00,80.7,71.0,30.11,WSW,257,1.0,9.0,71,0.00,,,0.00,weatherlink.com 1.10,2013-07-17 21:15:00,
2013-07-17 17:30:00,79.7,70.0,30.10,SE,129,1.0,8.0,71,0.00,,,0.00,weatherlink.com 1.10,2013-07-17 21:30:00,
2013-07-17 17:45:00,79.7,71.0,30.11,SSW,212,2.0,5.0,75,0.00,,,0.00,weatherlink.com 1.10,2013-07-17 21:45:00,
2013-07-17 18:00:00,79.6,71.0,30.10,WNW,289,0.0,4.0,75,0.00,,,0.00,weatherlink.com 1.10,2013-07-17 22:00:00,
2013-07-17 18:15:00,79.7,72.0,30.11,South,178,1.0,4.0,76,0.00,,,0.00,weatherlink.com 1.10,2013-07-17 22:15:00,
2013-07-17 18:31:00,79.9,71.0,30.10,WSW,244,2.0,4.0,75,0.00,,,0.00,weatherlink.com 1.10,2013-07-17 22:31:00,
2013-07-17 18:46:00,79.6,72.0,30.10,WSW,258,1.0,3.0,77,0.00,,,0.00,weatherlink.com 1.10,2013-07-17 22:46:00,
2013-07-17 19:01:00,79.1,71.0,30.09,NW,309,0.0,3.0,77,0.00,,,0.00,weatherlink.com 1.10,2013-07-17 23:01:00,
2013-07-17 19:16:00,78.3,71.0,30.09,SSW,193,1.0,5.0,78,0.00,,,0.00,weatherlink.com 1.10,2013-07-17 23:16:00,
2013-07-17 19:31:00,77.3,71.0,30.09,South,170,1.0,3.0,80,0.00,,,0.00,weatherlink.com 1.10,2013-07-17 23:31:00,
2013-07-17 19:46:00,76.6,71.0,30.08,South,191,2.0,2.0,82,0.00,,,0.00,weatherlink.com 1.10,2013-07-17 23:46:00,
2013-07-17 20:01:00,75.7,71.0,30.08,West,260,1.0,3.0,84,0.00,,,0.00,weatherlink.com 1.10,2013-07-18 00:01:00,
2013-07-17 20:16:00,74.9,70.0,30.08,ESE,122,0.0,4.0,85,0.00,,,0.00,weatherlink.com 1.10,2013-07-18 00:16:00,
2013-07-17 20:31:00,74.3,70.0,30.09,West,274,0.0,2.0,86,0.00,,,0.00,weatherlink.com 1.10,2013-07-18 00:31:00,
2013-07-17 20:46:00,73.9,70.0,30.09,West,274,0.0,1.0,87,0.00,,,0.00,weatherlink.com 1.10,2013-07-18 00:46:00,
2013-07-17 21:05:00,73.5,70.0,30.10,East,84,0.0,1.0,87,0.00,,,0.00,weatherlink.com 1.10,2013-07-18 01:05:00,
2013-07-17 21:16:00,73.3,69.0,30.10,NW,311,0.0,2.0,86,0.00,,,0.00,weatherlink.com 1.10,2013-07-18 01:16:00,
2013-07-17 21:30:00,73.4,69.0,30.10,WSW,241,0.0,2.0,85,0.00,,,0.00,weatherlink.com 1.10,2013-07-18 01:30:00,
2013-07-17 21:46:00,74.0,70.0,30.10,ESE,115,0.0,4.0,87,0.00,,,0.00,weatherlink.com 1.10,2013-07-18 01:46:00,
2013-07-17 22:02:00,74.1,70.0,30.10,SW,231,0.0,4.0,88,0.00,,,0.00,weatherlink.com 1.10,2013-07-18 02:02:00,
2013-07-17 22:16:00,74.0,70.0,30.10,WSW,240,0.0,2.0,87,0.00,,,0.00,weatherlink.com 1.10,2013-07-18 02:16:00,
2013-07-17 22:31:00,74.0,69.0,30.10,SE,128,1.0,3.0,85,0.00,,,0.00,weatherlink.com 1.10,2013-07-18 02:31:00,
2013-07-17 22:46:00,74.6,70.0,30.09,WSW,248,0.0,7.0,84,0.00,,,0.00,weatherlink.com 1.10,2013-07-18 02:46:00,
2013-07-17 23:05:00,75.1,70.0,30.09,WSW,250,0.0,5.0,84,0.00,,,0.00,weatherlink.com 1.10,2013-07-18 03:05:00,
2013-07-17 23:16:00,75.4,70.0,30.09,West,274,0.0,6.0,84,0.00,,,0.00,weatherlink.com 1.10,2013-07-18 03:16:00,
2013-07-17 23:32:00,75.5,71.0,30.08,NW,315,1.0,6.0,85,0.00,,,0.00,weatherlink.com 1.10,2013-07-18 03:32:00,
2013-07-17 23:46:00,75.6,71.0,30.08,SE,127,1.0,8.0,85,0.00,,,0.00,weatherlink.com 1.10,2013-07-18 03:46:00,